<?xml version="1.0" encoding="UTF-8" standalone="no" ?><gpx xmlns="http://www.topografix.com/GPX/1/1" xmlns:gpxx="http://www.garmin.com/xmlschemas/GpxExtensions/v3" xmlns:wptx1="http://www.garmin.com/xmlschemas/WaypointExtension/v1" xmlns:gpxtpx="http://www.garmin.com/xmlschemas/TrackPointExtension/v1" creator="GuideVTT.com" version="1.1" xmlns:xsi="http://www.w3.org/2001/XMLSchema-instance" xsi:schemaLocation="http://www.topografix.com/GPX/1/1 http://www.topografix.com/GPX/1/1/gpx.xsd http://www.garmin.com/xmlschemas/GpxExtensions/v3 http://www8.garmin.com/xmlschemas/GpxExtensionsv3.xsd http://www.garmin.com/xmlschemas/WaypointExtension/v1 http://www8.garmin.com/xmlschemas/WaypointExtensionv1.xsd http://www.garmin.com/xmlschemas/TrackPointExtension/v1 http://www.garmin.com/xmlschemas/TrackPointExtensionv1.xsd">
<metadata><link href="http://www.garmin.com"><text>Garmin International</text></link><time>2013-06-22T15:13:50Z</time></metadata>
<trk><name>tour_20080515a.gpx</name><extensions><gpxx:TrackExtension><gpxx:DisplayColor>Cyan</gpxx:DisplayColor></gpxx:TrackExtension></extensions><trkseg>
<trkpt lat="49.67751490" lon="5.79696178"><ele></ele><time>2014-6-5T15:44:24Z</time></trkpt>
<trkpt lat="49.67748000" lon="5.79699000"><ele></ele><time>2014-6-5T15:44:27Z</time></trkpt>
<trkpt lat="49.67674000" lon="5.79499000"><ele></ele><time>2014-6-5T15:44:30Z</time></trkpt>
<trkpt lat="49.67605000" lon="5.79332000"><ele></ele><time>2014-6-5T15:44:33Z</time></trkpt>
<trkpt lat="49.67580000" lon="5.79292000"><ele></ele><time>2014-6-5T15:44:36Z</time></trkpt>
<trkpt lat="49.67513000" lon="5.79210000"><ele></ele><time>2014-6-5T15:44:39Z</time></trkpt>
<trkpt lat="49.67536000" lon="5.79164000"><ele></ele><time>2014-6-5T15:44:42Z</time></trkpt>
<trkpt lat="49.67619000" lon="5.79022000"><ele></ele><time>2014-6-5T15:44:45Z</time></trkpt>
<trkpt lat="49.67683000" lon="5.78803000"><ele></ele><time>2014-6-5T15:44:48Z</time></trkpt>
<trkpt lat="49.67713000" lon="5.78615000"><ele></ele><time>2014-6-5T15:44:51Z</time></trkpt>
<trkpt lat="49.67724000" lon="5.78576000"><ele></ele><time>2014-6-5T15:44:54Z</time></trkpt>
<trkpt lat="49.67752000" lon="5.78530000"><ele></ele><time>2014-6-5T15:44:57Z</time></trkpt>
<trkpt lat="49.67981980" lon="5.77837944"><ele></ele><time>2014-6-5T15:45:0Z</time></trkpt>
<trkpt lat="49.67993080" lon="5.77305793"><ele></ele><time>2014-6-5T15:45:3Z</time></trkpt>
<trkpt lat="49.68143030" lon="5.77078342"><ele></ele><time>2014-6-5T15:45:6Z</time></trkpt>
<trkpt lat="49.68670590" lon="5.76906681"><ele></ele><time>2014-6-5T15:45:9Z</time></trkpt>
<trkpt lat="49.68670000" lon="5.76904000"><ele></ele><time>2014-6-5T15:45:12Z</time></trkpt>
<trkpt lat="49.68732000" lon="5.76897000"><ele></ele><time>2014-6-5T15:45:15Z</time></trkpt>
<trkpt lat="49.68819000" lon="5.76931000"><ele></ele><time>2014-6-5T15:45:18Z</time></trkpt>
<trkpt lat="49.68862000" lon="5.76944000"><ele></ele><time>2014-6-5T15:45:21Z</time></trkpt>
<trkpt lat="49.68881000" lon="5.76945000"><ele></ele><time>2014-6-5T15:45:24Z</time></trkpt>
<trkpt lat="49.68927000" lon="5.76913000"><ele></ele><time>2014-6-5T15:45:27Z</time></trkpt>
<trkpt lat="49.69071000" lon="5.76886000"><ele></ele><time>2014-6-5T15:45:30Z</time></trkpt>
<trkpt lat="49.69246000" lon="5.76824000"><ele></ele><time>2014-6-5T15:45:33Z</time></trkpt>
<trkpt lat="49.69266000" lon="5.76811000"><ele></ele><time>2014-6-5T15:45:36Z</time></trkpt>
<trkpt lat="49.69291000" lon="5.76779000"><ele></ele><time>2014-6-5T15:45:39Z</time></trkpt>
<trkpt lat="49.69308000" lon="5.76766000"><ele></ele><time>2014-6-5T15:45:42Z</time></trkpt>
<trkpt lat="49.69347000" lon="5.76746000"><ele></ele><time>2014-6-5T15:45:45Z</time></trkpt>
<trkpt lat="49.69600000" lon="5.76743000"><ele></ele><time>2014-6-5T15:45:48Z</time></trkpt>
<trkpt lat="49.69658000" lon="5.76688000"><ele></ele><time>2014-6-5T15:45:51Z</time></trkpt>
<trkpt lat="49.69702000" lon="5.76676000"><ele></ele><time>2014-6-5T15:45:54Z</time></trkpt>
<trkpt lat="49.69731000" lon="5.76658000"><ele></ele><time>2014-6-5T15:45:57Z</time></trkpt>
<trkpt lat="49.69786000" lon="5.76595000"><ele></ele><time>2014-6-5T15:46:0Z</time></trkpt>
<trkpt lat="49.69840000" lon="5.76552000"><ele></ele><time>2014-6-5T15:46:3Z</time></trkpt>
<trkpt lat="49.69873000" lon="5.76538000"><ele></ele><time>2014-6-5T15:46:6Z</time></trkpt>
<trkpt lat="49.69889000" lon="5.76538000"><ele></ele><time>2014-6-5T15:46:9Z</time></trkpt>
<trkpt lat="49.69946000" lon="5.76554000"><ele></ele><time>2014-6-5T15:46:12Z</time></trkpt>
<trkpt lat="49.69970000" lon="5.76334000"><ele></ele><time>2014-6-5T15:46:15Z</time></trkpt>
<trkpt lat="49.69974000" lon="5.76198000"><ele></ele><time>2014-6-5T15:46:18Z</time></trkpt>
<trkpt lat="49.69994000" lon="5.76071000"><ele></ele><time>2014-6-5T15:46:21Z</time></trkpt>
<trkpt lat="49.69998000" lon="5.76011000"><ele></ele><time>2014-6-5T15:46:24Z</time></trkpt>
<trkpt lat="49.70003000" lon="5.75522000"><ele></ele><time>2014-6-5T15:46:27Z</time></trkpt>
<trkpt lat="49.70017000" lon="5.75374000"><ele></ele><time>2014-6-5T15:46:30Z</time></trkpt>
<trkpt lat="49.70023000" lon="5.75340000"><ele></ele><time>2014-6-5T15:46:33Z</time></trkpt>
<trkpt lat="49.70024000" lon="5.75308000"><ele></ele><time>2014-6-5T15:46:36Z</time></trkpt>
<trkpt lat="49.70017000" lon="5.75068000"><ele></ele><time>2014-6-5T15:46:39Z</time></trkpt>
<trkpt lat="49.70011000" lon="5.74982000"><ele></ele><time>2014-6-5T15:46:42Z</time></trkpt>
<trkpt lat="49.69979000" lon="5.74792000"><ele></ele><time>2014-6-5T15:46:45Z</time></trkpt>
<trkpt lat="49.69971000" lon="5.74685000"><ele></ele><time>2014-6-5T15:46:48Z</time></trkpt>
<trkpt lat="49.69962000" lon="5.74641000"><ele></ele><time>2014-6-5T15:46:51Z</time></trkpt>
<trkpt lat="49.70092000" lon="5.74548000"><ele></ele><time>2014-6-5T15:46:54Z</time></trkpt>
<trkpt lat="49.70109000" lon="5.74544000"><ele></ele><time>2014-6-5T15:46:57Z</time></trkpt>
<trkpt lat="49.70185000" lon="5.74554000"><ele></ele><time>2014-6-5T15:47:0Z</time></trkpt>
<trkpt lat="49.70213000" lon="5.74542000"><ele></ele><time>2014-6-5T15:47:3Z</time></trkpt>
<trkpt lat="49.70225000" lon="5.74521000"><ele></ele><time>2014-6-5T15:47:6Z</time></trkpt>
<trkpt lat="49.70258000" lon="5.74394000"><ele></ele><time>2014-6-5T15:47:9Z</time></trkpt>
<trkpt lat="49.70275000" lon="5.74350000"><ele></ele><time>2014-6-5T15:47:12Z</time></trkpt>
<trkpt lat="49.70335000" lon="5.74257000"><ele></ele><time>2014-6-5T15:47:15Z</time></trkpt>
<trkpt lat="49.70364000" lon="5.74232000"><ele></ele><time>2014-6-5T15:47:18Z</time></trkpt>
<trkpt lat="49.70426000" lon="5.74192000"><ele></ele><time>2014-6-5T15:47:21Z</time></trkpt>
<trkpt lat="49.70447000" lon="5.74170000"><ele></ele><time>2014-6-5T15:47:24Z</time></trkpt>
<trkpt lat="49.70463000" lon="5.74136000"><ele></ele><time>2014-6-5T15:47:27Z</time></trkpt>
<trkpt lat="49.70479000" lon="5.74088000"><ele></ele><time>2014-6-5T15:47:30Z</time></trkpt>
<trkpt lat="49.70501000" lon="5.74054000"><ele></ele><time>2014-6-5T15:47:33Z</time></trkpt>
<trkpt lat="49.70597000" lon="5.73931000"><ele></ele><time>2014-6-5T15:47:36Z</time></trkpt>
<trkpt lat="49.70631000" lon="5.73877000"><ele></ele><time>2014-6-5T15:47:39Z</time></trkpt>
<trkpt lat="49.70700000" lon="5.73729000"><ele></ele><time>2014-6-5T15:47:42Z</time></trkpt>
<trkpt lat="49.70738000" lon="5.73662000"><ele></ele><time>2014-6-5T15:47:45Z</time></trkpt>
<trkpt lat="49.70767000" lon="5.73655000"><ele></ele><time>2014-6-5T15:47:48Z</time></trkpt>
<trkpt lat="49.70805000" lon="5.73656000"><ele></ele><time>2014-6-5T15:47:51Z</time></trkpt>
<trkpt lat="49.70935000" lon="5.73670000"><ele></ele><time>2014-6-5T15:47:54Z</time></trkpt>
<trkpt lat="49.70954000" lon="5.73681000"><ele></ele><time>2014-6-5T15:47:57Z</time></trkpt>
<trkpt lat="49.70989000" lon="5.73730000"><ele></ele><time>2014-6-5T15:48:0Z</time></trkpt>
<trkpt lat="49.71026000" lon="5.73773000"><ele></ele><time>2014-6-5T15:48:3Z</time></trkpt>
<trkpt lat="49.71065000" lon="5.73787000"><ele></ele><time>2014-6-5T15:48:6Z</time></trkpt>
<trkpt lat="49.71153000" lon="5.73786000"><ele></ele><time>2014-6-5T15:48:9Z</time></trkpt>
<trkpt lat="49.71355000" lon="5.73810000"><ele></ele><time>2014-6-5T15:48:12Z</time></trkpt>
<trkpt lat="49.71363000" lon="5.73805000"><ele></ele><time>2014-6-5T15:48:15Z</time></trkpt>
<trkpt lat="49.71391000" lon="5.73789000"><ele></ele><time>2014-6-5T15:48:18Z</time></trkpt>
<trkpt lat="49.71385000" lon="5.73830000"><ele></ele><time>2014-6-5T15:48:21Z</time></trkpt>
<trkpt lat="49.71422000" lon="5.73908000"><ele></ele><time>2014-6-5T15:48:24Z</time></trkpt>
<trkpt lat="49.71454000" lon="5.73962000"><ele></ele><time>2014-6-5T15:48:27Z</time></trkpt>
<trkpt lat="49.71519000" lon="5.74043000"><ele></ele><time>2014-6-5T15:48:30Z</time></trkpt>
<trkpt lat="49.71580000" lon="5.74099000"><ele></ele><time>2014-6-5T15:48:33Z</time></trkpt>
<trkpt lat="49.71670000" lon="5.74203000"><ele></ele><time>2014-6-5T15:48:36Z</time></trkpt>
<trkpt lat="49.71742000" lon="5.74310000"><ele></ele><time>2014-6-5T15:48:39Z</time></trkpt>
<trkpt lat="49.71777000" lon="5.74383000"><ele></ele><time>2014-6-5T15:48:42Z</time></trkpt>
<trkpt lat="49.71785000" lon="5.74418000"><ele></ele><time>2014-6-5T15:48:45Z</time></trkpt>
<trkpt lat="49.71786000" lon="5.74548000"><ele></ele><time>2014-6-5T15:48:48Z</time></trkpt>
<trkpt lat="49.71793000" lon="5.74592000"><ele></ele><time>2014-6-5T15:48:51Z</time></trkpt>
<trkpt lat="49.71824000" lon="5.74662000"><ele></ele><time>2014-6-5T15:48:54Z</time></trkpt>
<trkpt lat="49.71865000" lon="5.74736000"><ele></ele><time>2014-6-5T15:48:57Z</time></trkpt>
<trkpt lat="49.71887000" lon="5.74799000"><ele></ele><time>2014-6-5T15:49:0Z</time></trkpt>
<trkpt lat="49.71897000" lon="5.74833000"><ele></ele><time>2014-6-5T15:49:3Z</time></trkpt>
<trkpt lat="49.71908000" lon="5.74896000"><ele></ele><time>2014-6-5T15:49:6Z</time></trkpt>
<trkpt lat="49.71929000" lon="5.75052000"><ele></ele><time>2014-6-5T15:49:9Z</time></trkpt>
<trkpt lat="49.71981000" lon="5.75225000"><ele></ele><time>2014-6-5T15:49:12Z</time></trkpt>
<trkpt lat="49.72021000" lon="5.75440000"><ele></ele><time>2014-6-5T15:49:15Z</time></trkpt>
<trkpt lat="49.72084000" lon="5.75580000"><ele></ele><time>2014-6-5T15:49:18Z</time></trkpt>
<trkpt lat="49.72087000" lon="5.75615000"><ele></ele><time>2014-6-5T15:49:21Z</time></trkpt>
<trkpt lat="49.72077000" lon="5.75795000"><ele></ele><time>2014-6-5T15:49:24Z</time></trkpt>
<trkpt lat="49.72072000" lon="5.75980000"><ele></ele><time>2014-6-5T15:49:27Z</time></trkpt>
<trkpt lat="49.72026000" lon="5.76440000"><ele></ele><time>2014-6-5T15:49:30Z</time></trkpt>
<trkpt lat="49.72008000" lon="5.76541000"><ele></ele><time>2014-6-5T15:49:33Z</time></trkpt>
<trkpt lat="49.72007000" lon="5.76579000"><ele></ele><time>2014-6-5T15:49:36Z</time></trkpt>
<trkpt lat="49.72025000" lon="5.76630000"><ele></ele><time>2014-6-5T15:49:39Z</time></trkpt>
<trkpt lat="49.72073000" lon="5.76732000"><ele></ele><time>2014-6-5T15:49:42Z</time></trkpt>
<trkpt lat="49.72125000" lon="5.76826000"><ele></ele><time>2014-6-5T15:49:45Z</time></trkpt>
<trkpt lat="49.72154000" lon="5.76896000"><ele></ele><time>2014-6-5T15:49:48Z</time></trkpt>
<trkpt lat="49.72189000" lon="5.77311000"><ele></ele><time>2014-6-5T15:49:51Z</time></trkpt>
<trkpt lat="49.72200000" lon="5.77371000"><ele></ele><time>2014-6-5T15:49:54Z</time></trkpt>
<trkpt lat="49.72213000" lon="5.77418000"><ele></ele><time>2014-6-5T15:49:57Z</time></trkpt>
<trkpt lat="49.72294000" lon="5.77595000"><ele></ele><time>2014-6-5T15:50:0Z</time></trkpt>
<trkpt lat="49.72316000" lon="5.77665000"><ele></ele><time>2014-6-5T15:50:3Z</time></trkpt>
<trkpt lat="49.72322000" lon="5.77707000"><ele></ele><time>2014-6-5T15:50:6Z</time></trkpt>
<trkpt lat="49.72319000" lon="5.77755000"><ele></ele><time>2014-6-5T15:50:9Z</time></trkpt>
<trkpt lat="49.72296000" lon="5.77864000"><ele></ele><time>2014-6-5T15:50:12Z</time></trkpt>
<trkpt lat="49.72291000" lon="5.77971000"><ele></ele><time>2014-6-5T15:50:15Z</time></trkpt>
<trkpt lat="49.72323000" lon="5.78313000"><ele></ele><time>2014-6-5T15:50:18Z</time></trkpt>
<trkpt lat="49.72335000" lon="5.78411000"><ele></ele><time>2014-6-5T15:50:21Z</time></trkpt>
<trkpt lat="49.72361000" lon="5.78520000"><ele></ele><time>2014-6-5T15:50:24Z</time></trkpt>
<trkpt lat="49.72362000" lon="5.78537000"><ele></ele><time>2014-6-5T15:50:27Z</time></trkpt>
<trkpt lat="49.72360000" lon="5.78555000"><ele></ele><time>2014-6-5T15:50:30Z</time></trkpt>
<trkpt lat="49.72343000" lon="5.78602000"><ele></ele><time>2014-6-5T15:50:33Z</time></trkpt>
<trkpt lat="49.72321000" lon="5.78748000"><ele></ele><time>2014-6-5T15:50:36Z</time></trkpt>
<trkpt lat="49.72320000" lon="5.78771000"><ele></ele><time>2014-6-5T15:50:39Z</time></trkpt>
<trkpt lat="49.72332000" lon="5.78899000"><ele></ele><time>2014-6-5T15:50:42Z</time></trkpt>
<trkpt lat="49.72332000" lon="5.78929000"><ele></ele><time>2014-6-5T15:50:45Z</time></trkpt>
<trkpt lat="49.72326000" lon="5.78968000"><ele></ele><time>2014-6-5T15:50:48Z</time></trkpt>
<trkpt lat="49.72273000" lon="5.79154000"><ele></ele><time>2014-6-5T15:50:51Z</time></trkpt>
<trkpt lat="49.72268000" lon="5.79154000"><ele></ele><time>2014-6-5T15:50:54Z</time></trkpt>
<trkpt lat="49.72199000" lon="5.79153000"><ele></ele><time>2014-6-5T15:50:57Z</time></trkpt>
<trkpt lat="49.72162000" lon="5.79164000"><ele></ele><time>2014-6-5T15:51:0Z</time></trkpt>
<trkpt lat="49.72063000" lon="5.79167000"><ele></ele><time>2014-6-5T15:51:3Z</time></trkpt>
<trkpt lat="49.71954000" lon="5.79146000"><ele></ele><time>2014-6-5T15:51:6Z</time></trkpt>
<trkpt lat="49.71923000" lon="5.79145000"><ele></ele><time>2014-6-5T15:51:9Z</time></trkpt>
<trkpt lat="49.71900000" lon="5.79151000"><ele></ele><time>2014-6-5T15:51:12Z</time></trkpt>
<trkpt lat="49.71843000" lon="5.79189000"><ele></ele><time>2014-6-5T15:51:15Z</time></trkpt>
<trkpt lat="49.71798000" lon="5.79194000"><ele></ele><time>2014-6-5T15:51:18Z</time></trkpt>
<trkpt lat="49.71763000" lon="5.79183000"><ele></ele><time>2014-6-5T15:51:21Z</time></trkpt>
<trkpt lat="49.71677000" lon="5.79141000"><ele></ele><time>2014-6-5T15:51:24Z</time></trkpt>
<trkpt lat="49.71617000" lon="5.79145000"><ele></ele><time>2014-6-5T15:51:27Z</time></trkpt>
<trkpt lat="49.71606000" lon="5.79136000"><ele></ele><time>2014-6-5T15:51:30Z</time></trkpt>
<trkpt lat="49.71472000" lon="5.78960000"><ele></ele><time>2014-6-5T15:51:33Z</time></trkpt>
<trkpt lat="49.71377000" lon="5.78927000"><ele></ele><time>2014-6-5T15:51:36Z</time></trkpt>
<trkpt lat="49.71307000" lon="5.78863000"><ele></ele><time>2014-6-5T15:51:39Z</time></trkpt>
<trkpt lat="49.71279000" lon="5.78845000"><ele></ele><time>2014-6-5T15:51:42Z</time></trkpt>
<trkpt lat="49.71160000" lon="5.78803000"><ele></ele><time>2014-6-5T15:51:45Z</time></trkpt>
<trkpt lat="49.71077000" lon="5.78700000"><ele></ele><time>2014-6-5T15:51:48Z</time></trkpt>
<trkpt lat="49.71048000" lon="5.78680000"><ele></ele><time>2014-6-5T15:51:51Z</time></trkpt>
<trkpt lat="49.71026000" lon="5.78672000"><ele></ele><time>2014-6-5T15:51:54Z</time></trkpt>
<trkpt lat="49.71002000" lon="5.78673000"><ele></ele><time>2014-6-5T15:51:57Z</time></trkpt>
<trkpt lat="49.70953000" lon="5.78691000"><ele></ele><time>2014-6-5T15:52:0Z</time></trkpt>
<trkpt lat="49.70919000" lon="5.78717000"><ele></ele><time>2014-6-5T15:52:3Z</time></trkpt>
<trkpt lat="49.70798000" lon="5.78833000"><ele></ele><time>2014-6-5T15:52:6Z</time></trkpt>
<trkpt lat="49.70554000" lon="5.78927000"><ele></ele><time>2014-6-5T15:52:9Z</time></trkpt>
<trkpt lat="49.70488000" lon="5.78972000"><ele></ele><time>2014-6-5T15:52:12Z</time></trkpt>
<trkpt lat="49.70430000" lon="5.78983000"><ele></ele><time>2014-6-5T15:52:15Z</time></trkpt>
<trkpt lat="49.70267000" lon="5.78960000"><ele></ele><time>2014-6-5T15:52:18Z</time></trkpt>
<trkpt lat="49.70214000" lon="5.78983000"><ele></ele><time>2014-6-5T15:52:21Z</time></trkpt>
<trkpt lat="49.70166000" lon="5.79021000"><ele></ele><time>2014-6-5T15:52:24Z</time></trkpt>
<trkpt lat="49.70132000" lon="5.79058000"><ele></ele><time>2014-6-5T15:52:27Z</time></trkpt>
<trkpt lat="49.70082000" lon="5.79132000"><ele></ele><time>2014-6-5T15:52:30Z</time></trkpt>
<trkpt lat="49.69952000" lon="5.79355000"><ele></ele><time>2014-6-5T15:52:33Z</time></trkpt>
<trkpt lat="49.69846000" lon="5.79421000"><ele></ele><time>2014-6-5T15:52:36Z</time></trkpt>
<trkpt lat="49.69793000" lon="5.79463000"><ele></ele><time>2014-6-5T15:52:39Z</time></trkpt>
<trkpt lat="49.69790000" lon="5.79470000"><ele></ele><time>2014-6-5T15:52:42Z</time></trkpt>
<trkpt lat="49.69782000" lon="5.79486000"><ele></ele><time>2014-6-5T15:52:45Z</time></trkpt>
<trkpt lat="49.69738000" lon="5.79512000"><ele></ele><time>2014-6-5T15:52:48Z</time></trkpt>
<trkpt lat="49.69701000" lon="5.79553000"><ele></ele><time>2014-6-5T15:52:51Z</time></trkpt>
<trkpt lat="49.69627000" lon="5.79715000"><ele></ele><time>2014-6-5T15:52:54Z</time></trkpt>
<trkpt lat="49.69559000" lon="5.79803000"><ele></ele><time>2014-6-5T15:52:57Z</time></trkpt>
<trkpt lat="49.69527000" lon="5.79886000"><ele></ele><time>2014-6-5T15:53:0Z</time></trkpt>
<trkpt lat="49.69510000" lon="5.79971000"><ele></ele><time>2014-6-5T15:53:3Z</time></trkpt>
<trkpt lat="49.69494000" lon="5.80024000"><ele></ele><time>2014-6-5T15:53:6Z</time></trkpt>
<trkpt lat="49.69484000" lon="5.80039000"><ele></ele><time>2014-6-5T15:53:9Z</time></trkpt>
<trkpt lat="49.69481000" lon="5.80043000"><ele></ele><time>2014-6-5T15:53:12Z</time></trkpt>
<trkpt lat="49.69468000" lon="5.80030000"><ele></ele><time>2014-6-5T15:53:15Z</time></trkpt>
<trkpt lat="49.69461000" lon="5.80030000"><ele></ele><time>2014-6-5T15:53:18Z</time></trkpt>
<trkpt lat="49.69447000" lon="5.80041000"><ele></ele><time>2014-6-5T15:53:21Z</time></trkpt>
<trkpt lat="49.69442000" lon="5.80059000"><ele></ele><time>2014-6-5T15:53:24Z</time></trkpt>
<trkpt lat="49.69445000" lon="5.80087000"><ele></ele><time>2014-6-5T15:53:27Z</time></trkpt>
<trkpt lat="49.69006000" lon="5.80547000"><ele></ele><time>2014-6-5T15:53:30Z</time></trkpt>
<trkpt lat="49.68935000" lon="5.80666000"><ele></ele><time>2014-6-5T15:53:33Z</time></trkpt>
<trkpt lat="49.68924000" lon="5.80662000"><ele></ele><time>2014-6-5T15:53:36Z</time></trkpt>
<trkpt lat="49.68917000" lon="5.80679000"><ele></ele><time>2014-6-5T15:53:39Z</time></trkpt>
<trkpt lat="49.68537000" lon="5.80676000"><ele></ele><time>2014-6-5T15:53:42Z</time></trkpt>
<trkpt lat="49.68518000" lon="5.80936000"><ele></ele><time>2014-6-5T15:53:45Z</time></trkpt>
<trkpt lat="49.68512000" lon="5.80978000"><ele></ele><time>2014-6-5T15:53:48Z</time></trkpt>
<trkpt lat="49.68511000" lon="5.80983000"><ele></ele><time>2014-6-5T15:53:51Z</time></trkpt>
<trkpt lat="49.68460000" lon="5.80915000"><ele></ele><time>2014-6-5T15:53:54Z</time></trkpt>
<trkpt lat="49.68263000" lon="5.80638000"><ele></ele><time>2014-6-5T15:53:57Z</time></trkpt>
<trkpt lat="49.68231000" lon="5.80610000"><ele></ele><time>2014-6-5T15:54:0Z</time></trkpt>
<trkpt lat="49.68190000" lon="5.80583000"><ele></ele><time>2014-6-5T15:54:3Z</time></trkpt>
<trkpt lat="49.68193000" lon="5.80566000"><ele></ele><time>2014-6-5T15:54:6Z</time></trkpt>
<trkpt lat="49.68191000" lon="5.80545000"><ele></ele><time>2014-6-5T15:54:9Z</time></trkpt>
<trkpt lat="49.68179000" lon="5.80529000"><ele></ele><time>2014-6-5T15:54:12Z</time></trkpt>
<trkpt lat="49.68166000" lon="5.80526000"><ele></ele><time>2014-6-5T15:54:15Z</time></trkpt>
<trkpt lat="49.68156000" lon="5.80531000"><ele></ele><time>2014-6-5T15:54:18Z</time></trkpt>
<trkpt lat="49.68145000" lon="5.80558000"><ele></ele><time>2014-6-5T15:54:21Z</time></trkpt>
<trkpt lat="49.68074000" lon="5.80530000"><ele></ele><time>2014-6-5T15:54:24Z</time></trkpt>
<trkpt lat="49.68046000" lon="5.80534000"><ele></ele><time>2014-6-5T15:54:27Z</time></trkpt>
<trkpt lat="49.68040000" lon="5.80526000"><ele></ele><time>2014-6-5T15:54:30Z</time></trkpt>
<trkpt lat="49.68033000" lon="5.80526000"><ele></ele><time>2014-6-5T15:54:33Z</time></trkpt>
<trkpt lat="49.68027000" lon="5.80533000"><ele></ele><time>2014-6-5T15:54:36Z</time></trkpt>
<trkpt lat="49.68026000" lon="5.80546000"><ele></ele><time>2014-6-5T15:54:39Z</time></trkpt>
<trkpt lat="49.68021000" lon="5.80550000"><ele></ele><time>2014-6-5T15:54:42Z</time></trkpt>
<trkpt lat="49.67980000" lon="5.80567000"><ele></ele><time>2014-6-5T15:54:45Z</time></trkpt>
<trkpt lat="49.67946000" lon="5.80567000"><ele></ele><time>2014-6-5T15:54:48Z</time></trkpt>
<trkpt lat="49.67918000" lon="5.80548000"><ele></ele><time>2014-6-5T15:54:51Z</time></trkpt>
<trkpt lat="49.67873000" lon="5.80483000"><ele></ele><time>2014-6-5T15:54:54Z</time></trkpt>
<trkpt lat="49.67828000" lon="5.80403000"><ele></ele><time>2014-6-5T15:54:57Z</time></trkpt>
<trkpt lat="49.67803000" lon="5.80332000"><ele></ele><time>2014-6-5T15:55:0Z</time></trkpt>
<trkpt lat="49.67785000" lon="5.79898000"><ele></ele><time>2014-6-5T15:55:3Z</time></trkpt>
<trkpt lat="49.67778000" lon="5.79819000"><ele></ele><time>2014-6-5T15:55:6Z</time></trkpt>
<trkpt lat="49.67769000" lon="5.79772000"><ele></ele><time>2014-6-5T15:55:9Z</time></trkpt>
<trkpt lat="49.67753000" lon="5.79715000"><ele></ele><time>2014-6-5T15:55:12Z</time></trkpt>
<trkpt lat="" lon=""><ele></ele><time>2014-6-5T15:55:15Z</time></trkpt>
<trkpt lat="49.67751490" lon="5.79696178"><ele></ele><time>2014-6-5T15:55:18Z</time></trkpt>
<trkpt lat="49.67748000" lon="5.79699000"><ele></ele><time>2014-6-5T15:55:21Z</time></trkpt>
<trkpt lat="49.67674000" lon="5.79499000"><ele></ele><time>2014-6-5T15:55:24Z</time></trkpt>
<trkpt lat="49.67605000" lon="5.79332000"><ele></ele><time>2014-6-5T15:55:27Z</time></trkpt>
<trkpt lat="49.67580000" lon="5.79292000"><ele></ele><time>2014-6-5T15:55:30Z</time></trkpt>
<trkpt lat="49.67513000" lon="5.79210000"><ele></ele><time>2014-6-5T15:55:33Z</time></trkpt>
<trkpt lat="49.67536000" lon="5.79164000"><ele></ele><time>2014-6-5T15:55:36Z</time></trkpt>
<trkpt lat="49.67619000" lon="5.79022000"><ele></ele><time>2014-6-5T15:55:39Z</time></trkpt>
<trkpt lat="49.67683000" lon="5.78803000"><ele></ele><time>2014-6-5T15:55:42Z</time></trkpt>
<trkpt lat="49.67713000" lon="5.78615000"><ele></ele><time>2014-6-5T15:55:45Z</time></trkpt>
<trkpt lat="49.67724000" lon="5.78576000"><ele></ele><time>2014-6-5T15:55:48Z</time></trkpt>
<trkpt lat="49.67752000" lon="5.78530000"><ele></ele><time>2014-6-5T15:55:51Z</time></trkpt>
<trkpt lat="49.67981980" lon="5.77837944"><ele></ele><time>2014-6-5T15:55:54Z</time></trkpt>
<trkpt lat="49.67993080" lon="5.77305793"><ele></ele><time>2014-6-5T15:55:57Z</time></trkpt>
<trkpt lat="49.68143030" lon="5.77078342"><ele></ele><time>2014-6-5T15:56:0Z</time></trkpt>
<trkpt lat="49.68670590" lon="5.76906681"><ele></ele><time>2014-6-5T15:56:3Z</time></trkpt>
<trkpt lat="49.68670000" lon="5.76904000"><ele></ele><time>2014-6-5T15:56:6Z</time></trkpt>
<trkpt lat="49.68732000" lon="5.76897000"><ele></ele><time>2014-6-5T15:56:9Z</time></trkpt>
<trkpt lat="49.68819000" lon="5.76931000"><ele></ele><time>2014-6-5T15:56:12Z</time></trkpt>
<trkpt lat="49.68862000" lon="5.76944000"><ele></ele><time>2014-6-5T15:56:15Z</time></trkpt>
<trkpt lat="49.68881000" lon="5.76945000"><ele></ele><time>2014-6-5T15:56:18Z</time></trkpt>
<trkpt lat="49.68927000" lon="5.76913000"><ele></ele><time>2014-6-5T15:56:21Z</time></trkpt>
<trkpt lat="49.69071000" lon="5.76886000"><ele></ele><time>2014-6-5T15:56:24Z</time></trkpt>
<trkpt lat="49.69246000" lon="5.76824000"><ele></ele><time>2014-6-5T15:56:27Z</time></trkpt>
<trkpt lat="49.69266000" lon="5.76811000"><ele></ele><time>2014-6-5T15:56:30Z</time></trkpt>
<trkpt lat="49.69291000" lon="5.76779000"><ele></ele><time>2014-6-5T15:56:33Z</time></trkpt>
<trkpt lat="49.69308000" lon="5.76766000"><ele></ele><time>2014-6-5T15:56:36Z</time></trkpt>
<trkpt lat="49.69347000" lon="5.76746000"><ele></ele><time>2014-6-5T15:56:39Z</time></trkpt>
<trkpt lat="49.69600000" lon="5.76743000"><ele></ele><time>2014-6-5T15:56:42Z</time></trkpt>
<trkpt lat="49.69658000" lon="5.76688000"><ele></ele><time>2014-6-5T15:56:45Z</time></trkpt>
<trkpt lat="49.69702000" lon="5.76676000"><ele></ele><time>2014-6-5T15:56:48Z</time></trkpt>
<trkpt lat="49.69731000" lon="5.76658000"><ele></ele><time>2014-6-5T15:56:51Z</time></trkpt>
<trkpt lat="49.69786000" lon="5.76595000"><ele></ele><time>2014-6-5T15:56:54Z</time></trkpt>
<trkpt lat="49.69840000" lon="5.76552000"><ele></ele><time>2014-6-5T15:56:57Z</time></trkpt>
<trkpt lat="49.69873000" lon="5.76538000"><ele></ele><time>2014-6-5T15:57:0Z</time></trkpt>
<trkpt lat="49.69889000" lon="5.76538000"><ele></ele><time>2014-6-5T15:57:3Z</time></trkpt>
<trkpt lat="49.69946000" lon="5.76554000"><ele></ele><time>2014-6-5T15:57:6Z</time></trkpt>
<trkpt lat="49.69970000" lon="5.76334000"><ele></ele><time>2014-6-5T15:57:9Z</time></trkpt>
<trkpt lat="49.69974000" lon="5.76198000"><ele></ele><time>2014-6-5T15:57:12Z</time></trkpt>
<trkpt lat="49.69994000" lon="5.76071000"><ele></ele><time>2014-6-5T15:57:15Z</time></trkpt>
<trkpt lat="49.69998000" lon="5.76011000"><ele></ele><time>2014-6-5T15:57:18Z</time></trkpt>
<trkpt lat="49.70003000" lon="5.75522000"><ele></ele><time>2014-6-5T15:57:21Z</time></trkpt>
<trkpt lat="49.70017000" lon="5.75374000"><ele></ele><time>2014-6-5T15:57:24Z</time></trkpt>
<trkpt lat="49.70023000" lon="5.75340000"><ele></ele><time>2014-6-5T15:57:27Z</time></trkpt>
<trkpt lat="49.70024000" lon="5.75308000"><ele></ele><time>2014-6-5T15:57:30Z</time></trkpt>
<trkpt lat="49.70017000" lon="5.75068000"><ele></ele><time>2014-6-5T15:57:33Z</time></trkpt>
<trkpt lat="49.70011000" lon="5.74982000"><ele></ele><time>2014-6-5T15:57:36Z</time></trkpt>
<trkpt lat="49.69979000" lon="5.74792000"><ele></ele><time>2014-6-5T15:57:39Z</time></trkpt>
<trkpt lat="49.70123860" lon="5.74694395"><ele></ele><time>2014-6-5T15:57:42Z</time></trkpt>
<trkpt lat="49.70352850" lon="5.74915409"><ele></ele><time>2014-6-5T15:57:45Z</time></trkpt>
<trkpt lat="49.70463170" lon="5.74960470"><ele></ele><time>2014-6-5T15:57:48Z</time></trkpt>
<trkpt lat="49.70492320" lon="5.74607491"><ele></ele><time>2014-6-5T15:57:51Z</time></trkpt>
<trkpt lat="49.70213000" lon="5.74542000"><ele></ele><time>2014-6-5T15:57:54Z</time></trkpt>
<trkpt lat="49.70225000" lon="5.74521000"><ele></ele><time>2014-6-5T15:57:57Z</time></trkpt>
<trkpt lat="49.70258000" lon="5.74394000"><ele></ele><time>2014-6-5T15:58:0Z</time></trkpt>
<trkpt lat="49.70275000" lon="5.74350000"><ele></ele><time>2014-6-5T15:58:3Z</time></trkpt>
<trkpt lat="49.70335000" lon="5.74257000"><ele></ele><time>2014-6-5T15:58:6Z</time></trkpt>
<trkpt lat="49.70364000" lon="5.74232000"><ele></ele><time>2014-6-5T15:58:9Z</time></trkpt>
<trkpt lat="49.70426000" lon="5.74192000"><ele></ele><time>2014-6-5T15:58:12Z</time></trkpt>
<trkpt lat="49.70447000" lon="5.74170000"><ele></ele><time>2014-6-5T15:58:15Z</time></trkpt>
<trkpt lat="49.70463000" lon="5.74136000"><ele></ele><time>2014-6-5T15:58:18Z</time></trkpt>
<trkpt lat="49.70479000" lon="5.74088000"><ele></ele><time>2014-6-5T15:58:21Z</time></trkpt>
<trkpt lat="49.70501000" lon="5.74054000"><ele></ele><time>2014-6-5T15:58:24Z</time></trkpt>
<trkpt lat="49.70597000" lon="5.73931000"><ele></ele><time>2014-6-5T15:58:27Z</time></trkpt>
<trkpt lat="49.70631000" lon="5.73877000"><ele></ele><time>2014-6-5T15:58:30Z</time></trkpt>
<trkpt lat="49.70700000" lon="5.73729000"><ele></ele><time>2014-6-5T15:58:33Z</time></trkpt>
<trkpt lat="49.70738000" lon="5.73662000"><ele></ele><time>2014-6-5T15:58:36Z</time></trkpt>
<trkpt lat="49.70767000" lon="5.73655000"><ele></ele><time>2014-6-5T15:58:39Z</time></trkpt>
<trkpt lat="49.70805000" lon="5.73656000"><ele></ele><time>2014-6-5T15:58:42Z</time></trkpt>
<trkpt lat="49.70935000" lon="5.73670000"><ele></ele><time>2014-6-5T15:58:45Z</time></trkpt>
<trkpt lat="49.70954000" lon="5.73681000"><ele></ele><time>2014-6-5T15:58:48Z</time></trkpt>
<trkpt lat="49.70989000" lon="5.73730000"><ele></ele><time>2014-6-5T15:58:51Z</time></trkpt>
<trkpt lat="49.71026000" lon="5.73773000"><ele></ele><time>2014-6-5T15:58:54Z</time></trkpt>
<trkpt lat="49.71065000" lon="5.73787000"><ele></ele><time>2014-6-5T15:58:57Z</time></trkpt>
<trkpt lat="49.71153000" lon="5.73786000"><ele></ele><time>2014-6-5T15:59:0Z</time></trkpt>
<trkpt lat="49.71263830" lon="5.73799610"><ele></ele><time>2014-6-5T15:59:3Z</time></trkpt>
<trkpt lat="49.71208330" lon="5.73843598"><ele></ele><time>2014-6-5T15:59:6Z</time></trkpt>
<trkpt lat="49.71286720" lon="5.73990583"><ele></ele><time>2014-6-5T15:59:9Z</time></trkpt>
<trkpt lat="49.71363730" lon="5.74107527"><ele></ele><time>2014-6-5T15:59:12Z</time></trkpt>
<trkpt lat="49.71460150" lon="5.74421882"><ele></ele><time>2014-6-5T15:59:15Z</time></trkpt>
<trkpt lat="49.71454610" lon="5.74619293"><ele></ele><time>2014-6-5T15:59:18Z</time></trkpt>
<trkpt lat="49.71288110" lon="5.74936866"><ele></ele><time>2014-6-5T15:59:21Z</time></trkpt>
<trkpt lat="49.71074430" lon="5.75383186"><ele></ele><time>2014-6-5T15:59:24Z</time></trkpt>
<trkpt lat="49.70982850" lon="5.75576305"><ele></ele><time>2014-6-5T15:59:27Z</time></trkpt>
<trkpt lat="49.70814260" lon="5.75852036"><ele></ele><time>2014-6-5T15:59:30Z</time></trkpt>
<trkpt lat="49.70631780" lon="5.76171755"><ele></ele><time>2014-6-5T15:59:33Z</time></trkpt>
<trkpt lat="49.70481210" lon="5.76460361"><ele></ele><time>2014-6-5T15:59:36Z</time></trkpt>
<trkpt lat="49.70311220" lon="5.77168464"><ele></ele><time>2014-6-5T15:59:39Z</time></trkpt>
<trkpt lat="49.70005900" lon="5.77091217"><ele></ele><time>2014-6-5T15:59:42Z</time></trkpt>
<trkpt lat="49.69783830" lon="5.76868057"><ele></ele><time>2014-6-5T15:59:45Z</time></trkpt>
<trkpt lat="49.69717210" lon="5.76636314"><ele></ele><time>2014-6-5T15:59:48Z</time></trkpt>
<trkpt lat="49.69300810" lon="5.76752185"><ele></ele><time>2014-6-5T15:59:51Z</time></trkpt>
<trkpt lat="49.69074210" lon="5.76898634"><ele></ele><time>2014-6-5T15:59:54Z</time></trkpt>
<trkpt lat="49.68976000" lon="5.77503204"><ele></ele><time>2014-6-5T15:59:57Z</time></trkpt>
<trkpt lat="49.68765690" lon="5.78161954"><ele></ele><time>2014-6-5T16:0:0Z</time></trkpt>
<trkpt lat="49.68703910" lon="5.78517079"><ele></ele><time>2014-6-5T16:0:3Z</time></trkpt>
<trkpt lat="49.68709460" lon="5.78970909"><ele></ele><time>2014-6-5T16:0:6Z</time></trkpt>
<trkpt lat="49.68562310" lon="5.79412937"><ele></ele><time>2014-6-5T16:0:9Z</time></trkpt>
<trkpt lat="49.68420700" lon="5.79408645"><ele></ele><time>2014-6-5T16:0:12Z</time></trkpt>
<trkpt lat="49.68410990" lon="5.79706907"><ele></ele><time>2014-6-5T16:0:15Z</time></trkpt>
<trkpt lat="49.68204120" lon="5.80155372"><ele></ele><time>2014-6-5T16:0:18Z</time></trkpt>
<trkpt lat="49.68120820" lon="5.80226182"><ele></ele><time>2014-6-5T16:0:21Z</time></trkpt>
<trkpt lat="49.68051400" lon="5.80166101"><ele></ele><time>2014-6-5T16:0:24Z</time></trkpt>
<trkpt lat="49.67834800" lon="5.80333471"><ele></ele><time>2014-6-5T16:0:27Z</time></trkpt>
<trkpt lat="49.67785000" lon="5.79898000"><ele></ele><time>2014-6-5T16:0:30Z</time></trkpt>
<trkpt lat="49.67778000" lon="5.79819000"><ele></ele><time>2014-6-5T16:0:33Z</time></trkpt>
<trkpt lat="49.67769000" lon="5.79772000"><ele></ele><time>2014-6-5T16:0:36Z</time></trkpt>
<trkpt lat="49.67753000" lon="5.79715000"><ele></ele><time>2014-6-5T16:0:39Z</time></trkpt>
<trkpt lat="" lon=""><ele></ele><time>2014-6-5T16:0:42Z</time></trkpt>
<trkpt lat="15052008." lon=""><ele></ele><time>2014-6-5T16:0:45Z</time></trkpt>
<trkpt lat="49.67751490" lon="5.79696178"><ele></ele><time>2014-6-5T16:0:48Z</time></trkpt>
<trkpt lat="49.67748000" lon="5.79699000"><ele></ele><time>2014-6-5T16:0:51Z</time></trkpt>
<trkpt lat="49.67674000" lon="5.79499000"><ele></ele><time>2014-6-5T16:0:54Z</time></trkpt>
<trkpt lat="49.67605000" lon="5.79332000"><ele></ele><time>2014-6-5T16:0:57Z</time></trkpt>
<trkpt lat="49.67580000" lon="5.79292000"><ele></ele><time>2014-6-5T16:1:0Z</time></trkpt>
<trkpt lat="49.67513000" lon="5.79210000"><ele></ele><time>2014-6-5T16:1:3Z</time></trkpt>
<trkpt lat="49.67536000" lon="5.79164000"><ele></ele><time>2014-6-5T16:1:6Z</time></trkpt>
<trkpt lat="49.67619000" lon="5.79022000"><ele></ele><time>2014-6-5T16:1:9Z</time></trkpt>
<trkpt lat="49.67683000" lon="5.78803000"><ele></ele><time>2014-6-5T16:1:12Z</time></trkpt>
<trkpt lat="49.67713000" lon="5.78615000"><ele></ele><time>2014-6-5T16:1:15Z</time></trkpt>
<trkpt lat="49.67724000" lon="5.78576000"><ele></ele><time>2014-6-5T16:1:18Z</time></trkpt>
<trkpt lat="49.67752000" lon="5.78530000"><ele></ele><time>2014-6-5T16:1:21Z</time></trkpt>
<trkpt lat="49.67981980" lon="5.77837944"><ele></ele><time>2014-6-5T16:1:24Z</time></trkpt>
<trkpt lat="49.67993080" lon="5.77305793"><ele></ele><time>2014-6-5T16:1:27Z</time></trkpt>
<trkpt lat="49.68143030" lon="5.77078342"><ele></ele><time>2014-6-5T16:1:30Z</time></trkpt>
<trkpt lat="49.68670590" lon="5.76906681"><ele></ele><time>2014-6-5T16:1:33Z</time></trkpt>
<trkpt lat="49.68670000" lon="5.76904000"><ele></ele><time>2014-6-5T16:1:36Z</time></trkpt>
<trkpt lat="49.68732000" lon="5.76897000"><ele></ele><time>2014-6-5T16:1:39Z</time></trkpt>
<trkpt lat="49.68819000" lon="5.76931000"><ele></ele><time>2014-6-5T16:1:42Z</time></trkpt>
<trkpt lat="49.68862000" lon="5.76944000"><ele></ele><time>2014-6-5T16:1:45Z</time></trkpt>
<trkpt lat="49.68881000" lon="5.76945000"><ele></ele><time>2014-6-5T16:1:48Z</time></trkpt>
<trkpt lat="49.68927000" lon="5.76913000"><ele></ele><time>2014-6-5T16:1:51Z</time></trkpt>
<trkpt lat="49.69071000" lon="5.76886000"><ele></ele><time>2014-6-5T16:1:54Z</time></trkpt>
<trkpt lat="49.69246000" lon="5.76824000"><ele></ele><time>2014-6-5T16:1:57Z</time></trkpt>
<trkpt lat="49.69266000" lon="5.76811000"><ele></ele><time>2014-6-5T16:2:0Z</time></trkpt>
<trkpt lat="49.69291000" lon="5.76779000"><ele></ele><time>2014-6-5T16:2:3Z</time></trkpt>
<trkpt lat="49.69308000" lon="5.76766000"><ele></ele><time>2014-6-5T16:2:6Z</time></trkpt>
<trkpt lat="49.69347000" lon="5.76746000"><ele></ele><time>2014-6-5T16:2:9Z</time></trkpt>
<trkpt lat="49.69600000" lon="5.76743000"><ele></ele><time>2014-6-5T16:2:12Z</time></trkpt>
<trkpt lat="49.69658000" lon="5.76688000"><ele></ele><time>2014-6-5T16:2:15Z</time></trkpt>
<trkpt lat="49.69702000" lon="5.76676000"><ele></ele><time>2014-6-5T16:2:18Z</time></trkpt>
<trkpt lat="49.69731000" lon="5.76658000"><ele></ele><time>2014-6-5T16:2:21Z</time></trkpt>
<trkpt lat="49.69786000" lon="5.76595000"><ele></ele><time>2014-6-5T16:2:24Z</time></trkpt>
<trkpt lat="49.69840000" lon="5.76552000"><ele></ele><time>2014-6-5T16:2:27Z</time></trkpt>
<trkpt lat="49.69873000" lon="5.76538000"><ele></ele><time>2014-6-5T16:2:30Z</time></trkpt>
<trkpt lat="49.69889000" lon="5.76538000"><ele></ele><time>2014-6-5T16:2:33Z</time></trkpt>
<trkpt lat="49.69946000" lon="5.76554000"><ele></ele><time>2014-6-5T16:2:36Z</time></trkpt>
<trkpt lat="49.69970000" lon="5.76334000"><ele></ele><time>2014-6-5T16:2:39Z</time></trkpt>
<trkpt lat="49.69974000" lon="5.76198000"><ele></ele><time>2014-6-5T16:2:42Z</time></trkpt>
<trkpt lat="49.69994000" lon="5.76071000"><ele></ele><time>2014-6-5T16:2:45Z</time></trkpt>
<trkpt lat="49.69998000" lon="5.76011000"><ele></ele><time>2014-6-5T16:2:48Z</time></trkpt>
<trkpt lat="49.70003000" lon="5.75522000"><ele></ele><time>2014-6-5T16:2:51Z</time></trkpt>
<trkpt lat="49.70017000" lon="5.75374000"><ele></ele><time>2014-6-5T16:2:54Z</time></trkpt>
<trkpt lat="49.70023000" lon="5.75340000"><ele></ele><time>2014-6-5T16:2:57Z</time></trkpt>
<trkpt lat="49.70024000" lon="5.75308000"><ele></ele><time>2014-6-5T16:3:0Z</time></trkpt>
<trkpt lat="49.70017000" lon="5.75068000"><ele></ele><time>2014-6-5T16:3:3Z</time></trkpt>
<trkpt lat="49.70011000" lon="5.74982000"><ele></ele><time>2014-6-5T16:3:6Z</time></trkpt>
<trkpt lat="49.69979000" lon="5.74792000"><ele></ele><time>2014-6-5T16:3:9Z</time></trkpt>
<trkpt lat="49.69971000" lon="5.74685000"><ele></ele><time>2014-6-5T16:3:12Z</time></trkpt>
<trkpt lat="49.69962000" lon="5.74641000"><ele></ele><time>2014-6-5T16:3:15Z</time></trkpt>
<trkpt lat="49.70092000" lon="5.74548000"><ele></ele><time>2014-6-5T16:3:18Z</time></trkpt>
<trkpt lat="49.70109000" lon="5.74544000"><ele></ele><time>2014-6-5T16:3:21Z</time></trkpt>
<trkpt lat="49.70185000" lon="5.74554000"><ele></ele><time>2014-6-5T16:3:24Z</time></trkpt>
<trkpt lat="49.70213000" lon="5.74542000"><ele></ele><time>2014-6-5T16:3:27Z</time></trkpt>
<trkpt lat="49.70225000" lon="5.74521000"><ele></ele><time>2014-6-5T16:3:30Z</time></trkpt>
<trkpt lat="49.70258000" lon="5.74394000"><ele></ele><time>2014-6-5T16:3:33Z</time></trkpt>
<trkpt lat="49.70275000" lon="5.74350000"><ele></ele><time>2014-6-5T16:3:36Z</time></trkpt>
<trkpt lat="49.70335000" lon="5.74257000"><ele></ele><time>2014-6-5T16:3:39Z</time></trkpt>
<trkpt lat="49.70364000" lon="5.74232000"><ele></ele><time>2014-6-5T16:3:42Z</time></trkpt>
<trkpt lat="49.70426000" lon="5.74192000"><ele></ele><time>2014-6-5T16:3:45Z</time></trkpt>
<trkpt lat="49.70447000" lon="5.74170000"><ele></ele><time>2014-6-5T16:3:48Z</time></trkpt>
<trkpt lat="49.70463000" lon="5.74136000"><ele></ele><time>2014-6-5T16:3:51Z</time></trkpt>
<trkpt lat="49.70479000" lon="5.74088000"><ele></ele><time>2014-6-5T16:3:54Z</time></trkpt>
<trkpt lat="49.70501000" lon="5.74054000"><ele></ele><time>2014-6-5T16:3:57Z</time></trkpt>
<trkpt lat="49.70597000" lon="5.73931000"><ele></ele><time>2014-6-5T16:4:0Z</time></trkpt>
<trkpt lat="49.70631000" lon="5.73877000"><ele></ele><time>2014-6-5T16:4:3Z</time></trkpt>
<trkpt lat="49.70700000" lon="5.73729000"><ele></ele><time>2014-6-5T16:4:6Z</time></trkpt>
<trkpt lat="49.70738000" lon="5.73662000"><ele></ele><time>2014-6-5T16:4:9Z</time></trkpt>
<trkpt lat="49.70767000" lon="5.73655000"><ele></ele><time>2014-6-5T16:4:12Z</time></trkpt>
<trkpt lat="49.70805000" lon="5.73656000"><ele></ele><time>2014-6-5T16:4:15Z</time></trkpt>
<trkpt lat="49.70935000" lon="5.73670000"><ele></ele><time>2014-6-5T16:4:18Z</time></trkpt>
<trkpt lat="49.70954000" lon="5.73681000"><ele></ele><time>2014-6-5T16:4:21Z</time></trkpt>
<trkpt lat="49.70989000" lon="5.73730000"><ele></ele><time>2014-6-5T16:4:24Z</time></trkpt>
<trkpt lat="49.71026000" lon="5.73773000"><ele></ele><time>2014-6-5T16:4:27Z</time></trkpt>
<trkpt lat="49.71065000" lon="5.73787000"><ele></ele><time>2014-6-5T16:4:30Z</time></trkpt>
<trkpt lat="49.71153000" lon="5.73786000"><ele></ele><time>2014-6-5T16:4:33Z</time></trkpt>
<trkpt lat="49.71355000" lon="5.73810000"><ele></ele><time>2014-6-5T16:4:36Z</time></trkpt>
<trkpt lat="49.71363000" lon="5.73805000"><ele></ele><time>2014-6-5T16:4:39Z</time></trkpt>
<trkpt lat="49.71391000" lon="5.73789000"><ele></ele><time>2014-6-5T16:4:42Z</time></trkpt>
<trkpt lat="49.71385000" lon="5.73830000"><ele></ele><time>2014-6-5T16:4:45Z</time></trkpt>
<trkpt lat="49.71422000" lon="5.73908000"><ele></ele><time>2014-6-5T16:4:48Z</time></trkpt>
<trkpt lat="49.71454000" lon="5.73962000"><ele></ele><time>2014-6-5T16:4:51Z</time></trkpt>
<trkpt lat="49.71519000" lon="5.74043000"><ele></ele><time>2014-6-5T16:4:54Z</time></trkpt>
<trkpt lat="49.71580000" lon="5.74099000"><ele></ele><time>2014-6-5T16:4:57Z</time></trkpt>
<trkpt lat="49.71670000" lon="5.74203000"><ele></ele><time>2014-6-5T16:5:0Z</time></trkpt>
<trkpt lat="49.71742000" lon="5.74310000"><ele></ele><time>2014-6-5T16:5:3Z</time></trkpt>
<trkpt lat="49.71777000" lon="5.74383000"><ele></ele><time>2014-6-5T16:5:6Z</time></trkpt>
<trkpt lat="49.71785000" lon="5.74418000"><ele></ele><time>2014-6-5T16:5:9Z</time></trkpt>
<trkpt lat="49.71786000" lon="5.74548000"><ele></ele><time>2014-6-5T16:5:12Z</time></trkpt>
<trkpt lat="49.71793000" lon="5.74592000"><ele></ele><time>2014-6-5T16:5:15Z</time></trkpt>
<trkpt lat="49.71824000" lon="5.74662000"><ele></ele><time>2014-6-5T16:5:18Z</time></trkpt>
<trkpt lat="49.71865000" lon="5.74736000"><ele></ele><time>2014-6-5T16:5:21Z</time></trkpt>
<trkpt lat="49.71887000" lon="5.74799000"><ele></ele><time>2014-6-5T16:5:24Z</time></trkpt>
<trkpt lat="49.71897000" lon="5.74833000"><ele></ele><time>2014-6-5T16:5:27Z</time></trkpt>
<trkpt lat="49.71908000" lon="5.74896000"><ele></ele><time>2014-6-5T16:5:30Z</time></trkpt>
<trkpt lat="49.71929000" lon="5.75052000"><ele></ele><time>2014-6-5T16:5:33Z</time></trkpt>
<trkpt lat="49.71981000" lon="5.75225000"><ele></ele><time>2014-6-5T16:5:36Z</time></trkpt>
<trkpt lat="49.72021000" lon="5.75440000"><ele></ele><time>2014-6-5T16:5:39Z</time></trkpt>
<trkpt lat="49.72084000" lon="5.75580000"><ele></ele><time>2014-6-5T16:5:42Z</time></trkpt>
<trkpt lat="49.72087000" lon="5.75615000"><ele></ele><time>2014-6-5T16:5:45Z</time></trkpt>
<trkpt lat="49.72077000" lon="5.75795000"><ele></ele><time>2014-6-5T16:5:48Z</time></trkpt>
<trkpt lat="49.72072000" lon="5.75980000"><ele></ele><time>2014-6-5T16:5:51Z</time></trkpt>
<trkpt lat="49.72026000" lon="5.76440000"><ele></ele><time>2014-6-5T16:5:54Z</time></trkpt>
<trkpt lat="49.72008000" lon="5.76541000"><ele></ele><time>2014-6-5T16:5:57Z</time></trkpt>
<trkpt lat="49.72007000" lon="5.76579000"><ele></ele><time>2014-6-5T16:6:0Z</time></trkpt>
<trkpt lat="49.72025000" lon="5.76630000"><ele></ele><time>2014-6-5T16:6:3Z</time></trkpt>
<trkpt lat="49.72073000" lon="5.76732000"><ele></ele><time>2014-6-5T16:6:6Z</time></trkpt>
<trkpt lat="49.72125000" lon="5.76826000"><ele></ele><time>2014-6-5T16:6:9Z</time></trkpt>
<trkpt lat="49.72154000" lon="5.76896000"><ele></ele><time>2014-6-5T16:6:12Z</time></trkpt>
<trkpt lat="49.72189000" lon="5.77311000"><ele></ele><time>2014-6-5T16:6:15Z</time></trkpt>
<trkpt lat="49.72200000" lon="5.77371000"><ele></ele><time>2014-6-5T16:6:18Z</time></trkpt>
<trkpt lat="49.72213000" lon="5.77418000"><ele></ele><time>2014-6-5T16:6:21Z</time></trkpt>
<trkpt lat="49.72294000" lon="5.77595000"><ele></ele><time>2014-6-5T16:6:24Z</time></trkpt>
<trkpt lat="49.72316000" lon="5.77665000"><ele></ele><time>2014-6-5T16:6:27Z</time></trkpt>
<trkpt lat="49.72322000" lon="5.77707000"><ele></ele><time>2014-6-5T16:6:30Z</time></trkpt>
<trkpt lat="49.72319000" lon="5.77755000"><ele></ele><time>2014-6-5T16:6:33Z</time></trkpt>
<trkpt lat="49.72296000" lon="5.77864000"><ele></ele><time>2014-6-5T16:6:36Z</time></trkpt>
<trkpt lat="49.72291000" lon="5.77971000"><ele></ele><time>2014-6-5T16:6:39Z</time></trkpt>
<trkpt lat="49.72323000" lon="5.78313000"><ele></ele><time>2014-6-5T16:6:42Z</time></trkpt>
<trkpt lat="49.72335000" lon="5.78411000"><ele></ele><time>2014-6-5T16:6:45Z</time></trkpt>
<trkpt lat="49.72361000" lon="5.78520000"><ele></ele><time>2014-6-5T16:6:48Z</time></trkpt>
<trkpt lat="49.72362000" lon="5.78537000"><ele></ele><time>2014-6-5T16:6:51Z</time></trkpt>
<trkpt lat="49.72360000" lon="5.78555000"><ele></ele><time>2014-6-5T16:6:54Z</time></trkpt>
<trkpt lat="49.72343000" lon="5.78602000"><ele></ele><time>2014-6-5T16:6:57Z</time></trkpt>
<trkpt lat="49.72321000" lon="5.78748000"><ele></ele><time>2014-6-5T16:7:0Z</time></trkpt>
<trkpt lat="49.72320000" lon="5.78771000"><ele></ele><time>2014-6-5T16:7:3Z</time></trkpt>
<trkpt lat="49.72332000" lon="5.78899000"><ele></ele><time>2014-6-5T16:7:6Z</time></trkpt>
<trkpt lat="49.72332000" lon="5.78929000"><ele></ele><time>2014-6-5T16:7:9Z</time></trkpt>
<trkpt lat="49.72326000" lon="5.78968000"><ele></ele><time>2014-6-5T16:7:12Z</time></trkpt>
<trkpt lat="49.72273000" lon="5.79154000"><ele></ele><time>2014-6-5T16:7:15Z</time></trkpt>
<trkpt lat="49.72268000" lon="5.79154000"><ele></ele><time>2014-6-5T16:7:18Z</time></trkpt>
<trkpt lat="49.72199000" lon="5.79153000"><ele></ele><time>2014-6-5T16:7:21Z</time></trkpt>
<trkpt lat="49.72162000" lon="5.79164000"><ele></ele><time>2014-6-5T16:7:24Z</time></trkpt>
<trkpt lat="49.72063000" lon="5.79167000"><ele></ele><time>2014-6-5T16:7:27Z</time></trkpt>
<trkpt lat="49.71954000" lon="5.79146000"><ele></ele><time>2014-6-5T16:7:30Z</time></trkpt>
<trkpt lat="49.71923000" lon="5.79145000"><ele></ele><time>2014-6-5T16:7:33Z</time></trkpt>
<trkpt lat="49.71900000" lon="5.79151000"><ele></ele><time>2014-6-5T16:7:36Z</time></trkpt>
<trkpt lat="49.71843000" lon="5.79189000"><ele></ele><time>2014-6-5T16:7:39Z</time></trkpt>
<trkpt lat="49.71798000" lon="5.79194000"><ele></ele><time>2014-6-5T16:7:42Z</time></trkpt>
<trkpt lat="49.71763000" lon="5.79183000"><ele></ele><time>2014-6-5T16:7:45Z</time></trkpt>
<trkpt lat="49.71677000" lon="5.79141000"><ele></ele><time>2014-6-5T16:7:48Z</time></trkpt>
<trkpt lat="49.71617000" lon="5.79145000"><ele></ele><time>2014-6-5T16:7:51Z</time></trkpt>
<trkpt lat="49.71606000" lon="5.79136000"><ele></ele><time>2014-6-5T16:7:54Z</time></trkpt>
<trkpt lat="49.71472000" lon="5.78960000"><ele></ele><time>2014-6-5T16:7:57Z</time></trkpt>
<trkpt lat="49.71377000" lon="5.78927000"><ele></ele><time>2014-6-5T16:8:0Z</time></trkpt>
<trkpt lat="49.71307000" lon="5.78863000"><ele></ele><time>2014-6-5T16:8:3Z</time></trkpt>
<trkpt lat="49.71279000" lon="5.78845000"><ele></ele><time>2014-6-5T16:8:6Z</time></trkpt>
<trkpt lat="49.71160000" lon="5.78803000"><ele></ele><time>2014-6-5T16:8:9Z</time></trkpt>
<trkpt lat="49.71077000" lon="5.78700000"><ele></ele><time>2014-6-5T16:8:12Z</time></trkpt>
<trkpt lat="49.71048000" lon="5.78680000"><ele></ele><time>2014-6-5T16:8:15Z</time></trkpt>
<trkpt lat="49.71026000" lon="5.78672000"><ele></ele><time>2014-6-5T16:8:18Z</time></trkpt>
<trkpt lat="49.71002000" lon="5.78673000"><ele></ele><time>2014-6-5T16:8:21Z</time></trkpt>
<trkpt lat="49.70953000" lon="5.78691000"><ele></ele><time>2014-6-5T16:8:24Z</time></trkpt>
<trkpt lat="49.70919000" lon="5.78717000"><ele></ele><time>2014-6-5T16:8:27Z</time></trkpt>
<trkpt lat="49.70798000" lon="5.78833000"><ele></ele><time>2014-6-5T16:8:30Z</time></trkpt>
<trkpt lat="49.70554000" lon="5.78927000"><ele></ele><time>2014-6-5T16:8:33Z</time></trkpt>
<trkpt lat="49.70488000" lon="5.78972000"><ele></ele><time>2014-6-5T16:8:36Z</time></trkpt>
<trkpt lat="49.70430000" lon="5.78983000"><ele></ele><time>2014-6-5T16:8:39Z</time></trkpt>
<trkpt lat="49.70267000" lon="5.78960000"><ele></ele><time>2014-6-5T16:8:42Z</time></trkpt>
<trkpt lat="49.70214000" lon="5.78983000"><ele></ele><time>2014-6-5T16:8:45Z</time></trkpt>
<trkpt lat="49.70166000" lon="5.79021000"><ele></ele><time>2014-6-5T16:8:48Z</time></trkpt>
<trkpt lat="49.70132000" lon="5.79058000"><ele></ele><time>2014-6-5T16:8:51Z</time></trkpt>
<trkpt lat="49.70082000" lon="5.79132000"><ele></ele><time>2014-6-5T16:8:54Z</time></trkpt>
<trkpt lat="49.69952000" lon="5.79355000"><ele></ele><time>2014-6-5T16:8:57Z</time></trkpt>
<trkpt lat="49.69846000" lon="5.79421000"><ele></ele><time>2014-6-5T16:9:0Z</time></trkpt>
<trkpt lat="49.69793000" lon="5.79463000"><ele></ele><time>2014-6-5T16:9:3Z</time></trkpt>
<trkpt lat="49.69790000" lon="5.79470000"><ele></ele><time>2014-6-5T16:9:6Z</time></trkpt>
<trkpt lat="49.69782000" lon="5.79486000"><ele></ele><time>2014-6-5T16:9:9Z</time></trkpt>
<trkpt lat="49.69738000" lon="5.79512000"><ele></ele><time>2014-6-5T16:9:12Z</time></trkpt>
<trkpt lat="49.69701000" lon="5.79553000"><ele></ele><time>2014-6-5T16:9:15Z</time></trkpt>
<trkpt lat="49.69627000" lon="5.79715000"><ele></ele><time>2014-6-5T16:9:18Z</time></trkpt>
<trkpt lat="49.69559000" lon="5.79803000"><ele></ele><time>2014-6-5T16:9:21Z</time></trkpt>
<trkpt lat="49.69527000" lon="5.79886000"><ele></ele><time>2014-6-5T16:9:24Z</time></trkpt>
<trkpt lat="49.69510000" lon="5.79971000"><ele></ele><time>2014-6-5T16:9:27Z</time></trkpt>
<trkpt lat="49.69494000" lon="5.80024000"><ele></ele><time>2014-6-5T16:9:30Z</time></trkpt>
<trkpt lat="49.69484000" lon="5.80039000"><ele></ele><time>2014-6-5T16:9:33Z</time></trkpt>
<trkpt lat="49.69481000" lon="5.80043000"><ele></ele><time>2014-6-5T16:9:36Z</time></trkpt>
<trkpt lat="49.69468000" lon="5.80030000"><ele></ele><time>2014-6-5T16:9:39Z</time></trkpt>
<trkpt lat="49.69461000" lon="5.80030000"><ele></ele><time>2014-6-5T16:9:42Z</time></trkpt>
<trkpt lat="49.69447000" lon="5.80041000"><ele></ele><time>2014-6-5T16:9:45Z</time></trkpt>
<trkpt lat="49.69442000" lon="5.80059000"><ele></ele><time>2014-6-5T16:9:48Z</time></trkpt>
<trkpt lat="49.69445000" lon="5.80087000"><ele></ele><time>2014-6-5T16:9:51Z</time></trkpt>
<trkpt lat="49.69006000" lon="5.80547000"><ele></ele><time>2014-6-5T16:9:54Z</time></trkpt>
<trkpt lat="49.68935000" lon="5.80666000"><ele></ele><time>2014-6-5T16:9:57Z</time></trkpt>
<trkpt lat="49.68924000" lon="5.80662000"><ele></ele><time>2014-6-5T16:10:0Z</time></trkpt>
<trkpt lat="49.68917000" lon="5.80679000"><ele></ele><time>2014-6-5T16:10:3Z</time></trkpt>
<trkpt lat="49.68537000" lon="5.80676000"><ele></ele><time>2014-6-5T16:10:6Z</time></trkpt>
<trkpt lat="49.68518000" lon="5.80936000"><ele></ele><time>2014-6-5T16:10:9Z</time></trkpt>
<trkpt lat="49.68512000" lon="5.80978000"><ele></ele><time>2014-6-5T16:10:12Z</time></trkpt>
<trkpt lat="49.68511000" lon="5.80983000"><ele></ele><time>2014-6-5T16:10:15Z</time></trkpt>
<trkpt lat="49.68460000" lon="5.80915000"><ele></ele><time>2014-6-5T16:10:18Z</time></trkpt>
<trkpt lat="49.68263000" lon="5.80638000"><ele></ele><time>2014-6-5T16:10:21Z</time></trkpt>
<trkpt lat="49.68231000" lon="5.80610000"><ele></ele><time>2014-6-5T16:10:24Z</time></trkpt>
<trkpt lat="49.68190000" lon="5.80583000"><ele></ele><time>2014-6-5T16:10:27Z</time></trkpt>
<trkpt lat="49.68193000" lon="5.80566000"><ele></ele><time>2014-6-5T16:10:30Z</time></trkpt>
<trkpt lat="49.68191000" lon="5.80545000"><ele></ele><time>2014-6-5T16:10:33Z</time></trkpt>
<trkpt lat="49.68179000" lon="5.80529000"><ele></ele><time>2014-6-5T16:10:36Z</time></trkpt>
<trkpt lat="49.68166000" lon="5.80526000"><ele></ele><time>2014-6-5T16:10:39Z</time></trkpt>
<trkpt lat="49.68156000" lon="5.80531000"><ele></ele><time>2014-6-5T16:10:42Z</time></trkpt>
<trkpt lat="49.68145000" lon="5.80558000"><ele></ele><time>2014-6-5T16:10:45Z</time></trkpt>
<trkpt lat="49.68074000" lon="5.80530000"><ele></ele><time>2014-6-5T16:10:48Z</time></trkpt>
<trkpt lat="49.68046000" lon="5.80534000"><ele></ele><time>2014-6-5T16:10:51Z</time></trkpt>
<trkpt lat="49.68040000" lon="5.80526000"><ele></ele><time>2014-6-5T16:10:54Z</time></trkpt>
<trkpt lat="49.68033000" lon="5.80526000"><ele></ele><time>2014-6-5T16:10:57Z</time></trkpt>
<trkpt lat="49.68027000" lon="5.80533000"><ele></ele><time>2014-6-5T16:11:0Z</time></trkpt>
<trkpt lat="49.68026000" lon="5.80546000"><ele></ele><time>2014-6-5T16:11:3Z</time></trkpt>
<trkpt lat="49.68021000" lon="5.80550000"><ele></ele><time>2014-6-5T16:11:6Z</time></trkpt>
<trkpt lat="49.67980000" lon="5.80567000"><ele></ele><time>2014-6-5T16:11:9Z</time></trkpt>
<trkpt lat="49.67946000" lon="5.80567000"><ele></ele><time>2014-6-5T16:11:12Z</time></trkpt>
<trkpt lat="49.67918000" lon="5.80548000"><ele></ele><time>2014-6-5T16:11:15Z</time></trkpt>
<trkpt lat="49.67873000" lon="5.80483000"><ele></ele><time>2014-6-5T16:11:18Z</time></trkpt>
<trkpt lat="49.67828000" lon="5.80403000"><ele></ele><time>2014-6-5T16:11:21Z</time></trkpt>
<trkpt lat="49.67803000" lon="5.80332000"><ele></ele><time>2014-6-5T16:11:24Z</time></trkpt>
<trkpt lat="49.67785000" lon="5.79898000"><ele></ele><time>2014-6-5T16:11:27Z</time></trkpt>
<trkpt lat="49.67778000" lon="5.79819000"><ele></ele><time>2014-6-5T16:11:30Z</time></trkpt>
<trkpt lat="49.67769000" lon="5.79772000"><ele></ele><time>2014-6-5T16:11:33Z</time></trkpt>
<trkpt lat="49.67753000" lon="5.79715000"><ele></ele><time>2014-6-5T16:11:36Z</time></trkpt>
<trkpt lat="" lon=""><ele></ele><time>2014-6-5T16:11:39Z</time></trkpt>
</trkseg></trk></gpx>